createdAt,value
2018-12-15T00:02:29.646Z,101.33
2018-12-15T00:05:36.430Z,102.57
2018-12-15T00:08:41.185Z,94.73
2018-12-15T00:11:45.938Z,94.67
2018-12-15T00:14:50.720Z,97.33
2018-12-15T00:17:55.453Z,104.30
2018-12-15T00:21:00.180Z,99.73
2018-12-15T00:24:04.913Z,99.10
2018-12-15T00:27:09.725Z,97.43
2018-12-15T00:30:14.870Z,96.47
2018-12-15T00:33:19.761Z,96.40
2018-12-15T00:36:24.518Z,109.80
2018-12-15T00:39:29.240Z,97.97
2018-12-15T00:42:34.873Z,104.93
2018-12-15T00:45:39.600Z,97.60
2018-12-15T00:48:44.350Z,97.33
2018-12-15T00:51:49.103Z,102.67
2018-12-15T00:54:53.825Z,89.90
2018-12-15T00:57:58.563Z,94.30
2018-12-15T01:01:03.368Z,97.63
2018-12-15T01:04:09.163Z,92.87
2018-12-15T01:07:13.957Z,96.63
2018-12-15T01:10:18.810Z,94.63
2018-12-15T01:13:23.593Z,101.80
2018-12-15T01:16:28.346Z,98.30
2018-12-15T01:19:34.147Z,104.87
2018-12-15T01:22:38.895Z,96.43
2018-12-15T01:25:43.621Z,106.83
2018-12-15T01:28:48.355Z,106.77
2018-12-15T01:31:53.135Z,97.43
2018-12-15T01:34:57.883Z,110.60
2018-12-15T01:38:02.575Z,129.60
2018-12-15T01:41:07.304Z,130.20
2018-12-15T01:44:12.093Z,122.63
2018-12-15T01:47:16.833Z,120.00
2018-12-15T01:50:21.556Z,135.93
2018-12-15T01:53:26.438Z,130.67
2018-12-15T01:56:31.276Z,125.30
2018-12-15T01:59:36.014Z,124.27
2018-12-15T02:02:40.851Z,131.70
2018-12-15T02:05:45.552Z,118.67
2018-12-15T02:08:50.832Z,128.03
2018-12-15T02:11:57.609Z,132.47
2018-12-15T02:15:02.368Z,126.00
2018-12-15T02:18:08.166Z,121.27
2018-12-15T02:21:12.938Z,118.30
2018-12-15T02:24:17.753Z,120.33
2018-12-15T02:27:22.493Z,130.30
2018-12-15T02:30:27.239Z,120.20
2018-12-15T02:33:31.955Z,116.70
2018-12-15T02:36:36.785Z,122.23
2018-12-15T02:39:41.557Z,123.67
2018-12-15T02:42:46.301Z,132.13
2018-12-15T02:45:51.049Z,117.73
2018-12-15T02:48:55.795Z,126.97
2018-12-15T02:52:00.542Z,123.10
2018-12-15T02:55:05.421Z,110.63
2018-12-15T02:58:10.167Z,133.57
2018-12-15T03:01:15.260Z,101.63
2018-12-15T03:04:20.022Z,114.20
2018-12-15T03:07:24.951Z,112.07
2018-12-15T03:10:29.672Z,121.90
2018-12-15T03:13:34.427Z,117.63
2018-12-15T03:16:43.439Z,114.80
2018-12-15T03:19:48.177Z,110.53
2018-12-15T03:22:52.873Z,125.07
2018-12-15T03:25:58.094Z,121.33
2018-12-15T03:29:02.895Z,123.17
2018-12-15T03:32:07.656Z,122.47
2018-12-15T03:35:12.530Z,121.73
2018-12-15T03:38:17.253Z,118.03
2018-12-15T03:41:21.989Z,128.33
2018-12-15T03:44:26.893Z,125.73
2018-12-15T03:47:31.625Z,120.60
2018-12-15T03:50:36.471Z,114.47
2018-12-15T03:53:41.209Z,117.23
2018-12-15T03:56:45.942Z,110.77
2018-12-15T03:59:50.944Z,109.23
2018-12-15T04:02:55.648Z,122.60
2018-12-15T04:06:00.392Z,120.60
2018-12-15T04:09:06.958Z,121.60
2018-12-15T04:12:12.773Z,115.53
2018-12-15T04:15:17.526Z,120.07
2018-12-15T04:18:22.255Z,115.07
2018-12-15T04:21:27.012Z,106.67
2018-12-15T04:24:31.714Z,108.47
2018-12-15T04:27:36.466Z,115.77
2018-12-15T04:30:43.258Z,109.67
2018-12-15T04:33:47.963Z,124.03
2018-12-15T04:36:52.703Z,121.43
2018-12-15T04:39:57.423Z,123.47
2018-12-15T04:43:02.485Z,124.80
2018-12-15T04:46:07.198Z,125.87
2018-12-15T04:49:11.917Z,117.00
2018-12-15T04:52:16.714Z,114.60
2018-12-15T04:55:21.607Z,123.47
2018-12-15T04:58:26.354Z,133.53
2018-12-15T05:01:31.121Z,132.57
2018-12-15T05:04:36.184Z,124.50
2018-12-15T05:07:40.910Z,125.33
2018-12-15T05:10:46.715Z,123.90
2018-12-15T05:13:51.452Z,128.07
2018-12-15T05:16:56.204Z,137.73
2018-12-15T05:20:01.015Z,136.27
2018-12-15T05:23:05.781Z,136.53
2018-12-15T05:26:10.533Z,126.20
2018-12-15T05:29:15.236Z,137.03
2018-12-15T05:32:19.952Z,132.50
2018-12-15T05:35:24.805Z,128.33
2018-12-15T05:38:29.523Z,138.97
2018-12-15T05:41:34.316Z,136.80
2018-12-15T05:44:39.031Z,127.73
2018-12-15T05:47:43.811Z,131.30
2018-12-15T05:50:48.545Z,145.77
2018-12-15T05:53:53.263Z,118.50
2018-12-15T05:56:58.167Z,123.57
2018-12-15T06:00:03.009Z,124.63
2018-12-15T06:03:07.929Z,128.73
2018-12-15T06:06:12.685Z,145.70
2018-12-15T06:09:17.421Z,138.10
2018-12-15T06:12:22.164Z,133.17
2018-12-15T06:15:26.972Z,127.10
2018-12-15T06:18:31.993Z,133.27
2018-12-15T06:21:36.811Z,133.10
2018-12-15T06:24:41.565Z,134.77
2018-12-15T06:27:46.311Z,151.70
2018-12-15T06:30:51.048Z,124.67
2018-12-15T06:33:55.861Z,133.43
2018-12-15T06:37:00.614Z,142.83
2018-12-15T06:40:06.509Z,139.97
2018-12-15T06:43:11.277Z,142.17
2018-12-15T06:46:16.018Z,140.90
2018-12-15T06:49:20.722Z,148.07
2018-12-15T06:52:25.476Z,138.07
2018-12-15T06:55:30.209Z,118.80
2018-12-15T06:58:35.005Z,133.30
2018-12-15T07:01:39.744Z,140.10
2018-12-15T07:04:44.448Z,140.60
2018-12-15T07:07:49.206Z,131.33
2018-12-15T07:10:54.032Z,129.10
2018-12-15T07:13:58.758Z,129.97
2018-12-15T07:17:03.486Z,125.73
2018-12-15T07:20:08.282Z,124.73
2018-12-15T07:23:13.102Z,168.83
2018-12-15T07:26:17.866Z,157.97
2018-12-15T07:29:22.661Z,147.57
2018-12-15T07:32:27.451Z,144.77
2018-12-15T07:35:32.298Z,164.13
2018-12-15T07:41:53.777Z,160.63
2018-12-15T07:44:58.548Z,157.27
2018-12-15T07:48:03.285Z,162.80
2018-12-15T07:51:08.045Z,143.67
2018-12-15T07:54:12.787Z,159.70
2018-12-15T07:57:17.557Z,156.63
2018-12-15T08:00:22.361Z,149.13
2018-12-15T08:03:27.137Z,144.03
2018-12-15T08:06:31.947Z,157.87
2018-12-15T08:09:36.741Z,145.00
2018-12-15T08:12:43.480Z,145.37
2018-12-15T08:15:48.219Z,150.37
2018-12-15T08:18:57.989Z,165.10
2018-12-15T08:21:59.797Z,144.93
2018-12-15T08:25:04.912Z,165.07
2018-12-15T08:28:09.665Z,149.20
2018-12-15T08:31:14.477Z,147.43
2018-12-15T08:34:19.217Z,148.13
2018-12-15T08:37:23.985Z,143.27
2018-12-15T08:40:28.738Z,159.00
2018-12-15T08:43:33.733Z,174.03
2018-12-15T08:46:38.481Z,169.47
2018-12-15T08:49:43.289Z,157.77
2018-12-15T08:52:48.090Z,191.27
2018-12-15T08:55:52.830Z,216.23
2018-12-15T08:58:57.713Z,183.20
2018-12-15T09:02:02.448Z,189.13
2018-12-15T09:05:07.255Z,167.07
2018-12-15T09:08:12.017Z,203.97
2018-12-15T09:11:16.924Z,163.83
2018-12-15T09:14:21.681Z,144.20
2018-12-15T09:17:26.486Z,158.03
2018-12-15T09:20:31.293Z,134.20
2018-12-15T09:23:36.048Z,131.23
2018-12-15T09:26:40.813Z,191.23
2018-12-15T09:29:45.601Z,119.70
2018-12-15T09:32:50.373Z,100.83
2018-12-15T09:35:55.294Z,103.10
2018-12-15T09:39:01.106Z,110.60
2018-12-15T09:42:07.910Z,119.47
2018-12-15T09:45:13.773Z,113.13
2018-12-15T09:48:18.539Z,104.87
2018-12-15T09:51:23.281Z,98.80
2018-12-15T09:54:28.125Z,93.27
2018-12-15T09:57:33.004Z,107.57
2018-12-15T10:00:37.784Z,104.30
2018-12-15T10:03:42.599Z,121.07
2018-12-15T10:06:47.345Z,198.77
2018-12-15T10:09:52.109Z,131.20
2018-12-15T10:12:56.874Z,143.07
2018-12-15T10:16:01.630Z,130.00
2018-12-15T10:19:06.474Z,139.07
2018-12-15T10:22:11.619Z,132.97
2018-12-15T10:25:16.377Z,123.83
2018-12-15T10:28:21.110Z,133.27
2018-12-15T10:31:31.080Z,123.17
2018-12-15T10:34:35.864Z,128.20
2018-12-15T10:37:40.698Z,134.63
2018-12-15T10:40:45.424Z,132.37
2018-12-15T10:43:50.364Z,125.67
2018-12-15T10:46:55.164Z,125.07
2018-12-15T10:50:01.979Z,116.93
2018-12-15T10:53:08.783Z,125.97
2018-12-15T10:56:15.578Z,175.50
2018-12-15T10:59:20.449Z,131.40
2018-12-15T11:02:26.627Z,149.37
2018-12-15T11:05:31.513Z,141.80
2018-12-15T11:08:36.459Z,114.13
2018-12-15T11:11:41.259Z,85.00
2018-12-15T11:14:47.405Z,89.13
2018-12-15T11:17:52.202Z,80.83
2018-12-15T11:20:56.958Z,95.40
2018-12-15T11:24:01.884Z,95.07
2018-12-15T11:27:08.142Z,109.83
2018-12-15T11:30:13.061Z,103.50
2018-12-15T11:33:17.933Z,96.10
2018-12-15T11:36:22.814Z,100.17
2018-12-15T11:39:27.679Z,133.63
2018-12-15T11:42:32.429Z,94.57
2018-12-15T11:45:37.169Z,77.77
2018-12-15T11:48:42.060Z,100.93
2018-12-15T11:51:46.843Z,119.77
2018-12-15T11:54:51.621Z,98.93
2018-12-15T11:57:56.373Z,97.13
2018-12-15T12:01:01.403Z,91.97
2018-12-15T12:04:08.188Z,90.67
2018-12-15T12:07:14.063Z,79.57
2018-12-15T12:10:18.832Z,103.03
2018-12-15T12:13:23.774Z,83.53
2018-12-15T12:16:28.641Z,100.37
2018-12-15T12:19:33.373Z,85.90
2018-12-15T12:22:38.091Z,80.77
2018-12-15T12:25:44.895Z,221.30
2018-12-15T12:28:51.673Z,88.30
2018-12-15T12:31:56.439Z,80.10
2018-12-15T12:35:01.192Z,77.60
2018-12-15T12:38:07.992Z,102.73
2018-12-15T12:41:12.777Z,118.80
2018-12-15T12:44:18.553Z,102.63
2018-12-15T12:47:23.314Z,85.73
2018-12-15T12:50:28.981Z,148.10
2018-12-15T12:53:34.267Z,109.37
2018-12-15T12:56:39.555Z,87.73
2018-12-15T12:59:44.740Z,96.43
2018-12-15T13:02:49.949Z,85.17
2018-12-15T13:05:55.177Z,78.73
2018-12-15T13:08:59.951Z,92.50
2018-12-15T13:12:04.677Z,92.87
2018-12-15T13:15:09.464Z,91.00
2018-12-15T13:18:14.178Z,112.63
2018-12-15T13:21:18.962Z,87.60
2018-12-15T13:24:23.683Z,86.60
2018-12-15T13:27:28.439Z,98.37
2018-12-15T13:30:33.188Z,87.43
2018-12-15T13:33:37.982Z,93.53
2018-12-15T13:36:42.773Z,94.97
2018-12-15T13:39:47.494Z,92.60
2018-12-15T13:42:52.250Z,111.60
2018-12-15T13:45:57.045Z,91.37
2018-12-15T13:49:01.805Z,100.93
2018-12-15T13:52:08.203Z,100.03
2018-12-15T13:55:13.411Z,100.57
2018-12-15T13:58:18.124Z,98.57
2018-12-15T14:01:22.874Z,124.93
2018-12-15T14:04:28.120Z,130.50
2018-12-15T14:07:32.870Z,159.33
2018-12-15T14:10:37.618Z,151.50
2018-12-15T14:13:43.468Z,144.00
2018-12-15T14:16:48.182Z,146.10
2018-12-15T14:19:52.948Z,137.00
2018-12-15T14:22:57.712Z,130.27
2018-12-15T14:26:05.561Z,139.07
2018-12-15T14:29:10.335Z,137.53
2018-12-15T14:32:15.049Z,119.70
2018-12-15T14:35:19.790Z,124.17
2018-12-15T14:38:24.659Z,131.47
2018-12-15T14:41:29.390Z,139.83
2018-12-15T14:44:34.154Z,139.30
2018-12-15T14:47:38.893Z,121.27
2018-12-15T14:50:43.619Z,129.33
2018-12-15T14:53:48.421Z,116.73
2018-12-15T14:56:53.248Z,117.50
2018-12-15T14:59:58.002Z,182.43
2018-12-15T15:03:02.793Z,162.83
2018-12-15T15:06:07.555Z,199.07
2018-12-15T15:09:12.332Z,156.23
2018-12-15T15:12:17.113Z,137.37
2018-12-15T15:15:21.861Z,184.00
2018-12-15T15:18:26.629Z,167.83
2018-12-15T15:21:31.474Z,147.17
2018-12-15T15:24:36.186Z,144.17
2018-12-15T15:27:40.952Z,134.13
2018-12-15T15:30:46.052Z,171.97
2018-12-15T15:33:50.821Z,129.13
2018-12-15T15:36:55.592Z,125.57
2018-12-15T15:40:00.518Z,124.03
2018-12-15T15:43:05.289Z,135.20
2018-12-15T15:46:10.067Z,143.87
2018-12-15T15:49:14.799Z,137.80
2018-12-15T15:52:19.621Z,130.13
2018-12-15T15:55:24.389Z,154.83
2018-12-15T15:58:29.291Z,169.77
2018-12-15T16:01:34.090Z,175.37
2018-12-15T16:04:39.098Z,169.97
2018-12-15T16:07:43.883Z,173.30
2018-12-15T16:10:48.654Z,164.90
2018-12-15T16:13:53.441Z,173.43
2018-12-15T16:16:58.486Z,214.97
2018-12-15T16:20:03.390Z,173.37
2018-12-15T16:23:08.108Z,171.13
2018-12-15T16:26:12.858Z,160.87
2018-12-15T16:29:24.068Z,178.30
2018-12-15T16:32:28.804Z,174.37
2018-12-15T16:35:33.638Z,187.67
2018-12-15T16:38:38.396Z,197.10
2018-12-15T16:41:43.151Z,184.57
2018-12-15T16:44:47.878Z,193.30
2018-12-15T16:47:52.688Z,195.20
2018-12-15T16:50:57.437Z,181.47
2018-12-15T16:54:03.360Z,146.40
2018-12-15T16:57:08.192Z,155.67
2018-12-15T17:00:15.183Z,146.60
2018-12-15T17:03:20.202Z,128.90
2018-12-15T17:06:25.008Z,117.87
2018-12-15T17:09:29.765Z,106.60
2018-12-15T17:12:34.625Z,133.67
2018-12-15T17:15:39.385Z,112.97
2018-12-15T17:18:45.930Z,109.40
2018-12-15T17:21:50.890Z,101.93
2018-12-15T17:24:55.870Z,113.53
2018-12-15T17:28:00.834Z,125.53
2018-12-15T17:31:06.090Z,113.27
2018-12-15T17:34:10.886Z,93.23
2018-12-15T17:37:15.882Z,104.80
2018-12-15T17:40:21.044Z,98.50
2018-12-15T17:43:26.245Z,113.03
2018-12-15T17:46:31.957Z,113.37
2018-12-15T17:49:36.772Z,130.27
2018-12-15T17:52:41.544Z,126.27
2018-12-15T17:55:47.525Z,137.13
2018-12-15T17:58:52.298Z,260.07
2018-12-15T18:01:57.082Z,141.83
2018-12-15T18:05:01.855Z,128.63
2018-12-15T18:08:07.723Z,150.37
2018-12-15T18:11:12.505Z,128.77
2018-12-15T18:14:19.370Z,142.13
2018-12-15T18:17:24.150Z,134.77
2018-12-15T18:20:28.915Z,119.50
2018-12-15T18:23:33.929Z,132.57
2018-12-15T18:26:38.710Z,112.90
2018-12-15T18:29:43.715Z,125.10
2018-12-15T18:32:48.486Z,129.90
2018-12-15T18:35:53.557Z,118.43
2018-12-15T18:38:58.326Z,118.60
2018-12-15T18:42:03.134Z,130.80
2018-12-15T18:45:08.398Z,134.90
2018-12-15T18:48:13.177Z,144.97
2018-12-15T18:51:18.235Z,119.17
2018-12-15T18:54:23.218Z,162.63
2018-12-15T18:57:28.060Z,150.27
2018-12-15T19:00:32.878Z,189.30
2018-12-15T19:03:37.829Z,176.67
2018-12-15T19:06:42.626Z,144.83
2018-12-15T19:09:47.444Z,178.17
2018-12-15T19:12:52.351Z,163.50
2018-12-15T19:15:57.187Z,195.37
2018-12-15T19:19:01.994Z,213.00
2018-12-15T19:22:06.973Z,179.97
2018-12-15T19:25:12.253Z,155.87
2018-12-15T19:28:17.270Z,167.77
2018-12-15T19:31:22.028Z,186.67
2018-12-15T19:34:26.811Z,195.20
2018-12-15T19:37:32.867Z,172.80
2018-12-15T19:40:37.645Z,158.93
2018-12-15T19:43:42.553Z,176.87
2018-12-15T19:46:47.357Z,172.63
2018-12-15T19:49:52.131Z,174.83
2018-12-15T19:52:57.925Z,169.37
2018-12-15T19:56:02.694Z,172.63
2018-12-15T19:59:09.711Z,158.63
2018-12-15T20:02:14.489Z,175.20
2018-12-15T20:05:19.306Z,152.27
2018-12-15T20:08:24.093Z,148.30
2018-12-15T20:11:28.889Z,117.87
2018-12-15T20:14:33.666Z,123.17
2018-12-15T20:17:38.612Z,113.00
2018-12-15T20:20:43.381Z,118.90
2018-12-15T20:23:48.132Z,113.50
2018-12-15T20:26:52.942Z,139.70
2018-12-15T20:29:57.743Z,143.93
2018-12-15T20:33:02.545Z,142.50
2018-12-15T20:36:07.315Z,151.67
2018-12-15T20:39:12.086Z,153.80
2018-12-15T20:42:16.857Z,167.73
2018-12-15T20:45:21.670Z,163.03
2018-12-15T20:48:26.409Z,157.23
2018-12-15T20:51:31.206Z,155.97
2018-12-15T20:54:35.969Z,158.50
2018-12-15T20:57:40.700Z,161.27
2018-12-15T21:00:45.471Z,146.17
2018-12-15T21:03:50.193Z,135.57
2018-12-15T21:06:54.971Z,140.60
2018-12-15T21:09:59.738Z,145.13
2018-12-15T21:13:04.658Z,134.83
2018-12-15T21:16:09.581Z,124.33
2018-12-15T21:19:14.329Z,113.43
2018-12-15T21:22:20.457Z,127.90
2018-12-15T21:25:25.389Z,141.17
2018-12-15T21:28:30.306Z,124.03
2018-12-15T21:31:35.090Z,201.87
2018-12-15T21:34:39.845Z,200.30
2018-12-15T21:37:44.643Z,118.57
2018-12-15T21:40:49.394Z,133.20
2018-12-15T21:43:54.134Z,97.03
2018-12-15T21:46:58.906Z,85.00
2018-12-15T21:50:03.824Z,140.23
2018-12-15T21:53:08.600Z,104.20
2018-12-15T21:56:13.345Z,100.77
2018-12-15T21:59:18.113Z,93.43
2018-12-15T22:02:22.852Z,95.23
2018-12-15T22:05:27.646Z,81.20
2018-12-15T22:08:32.474Z,83.30
2018-12-15T22:11:37.213Z,75.70
2018-12-15T22:14:42.183Z,82.60
2018-12-15T22:17:46.971Z,73.53
2018-12-15T22:20:52.034Z,76.67
2018-12-15T22:23:56.847Z,70.40
2018-12-15T22:27:01.574Z,61.13
2018-12-15T22:30:07.429Z,69.97
2018-12-15T22:33:12.190Z,58.20
2018-12-15T22:36:16.942Z,68.20
2018-12-15T22:39:21.667Z,62.40
2018-12-15T22:42:26.422Z,55.60
2018-12-15T22:45:31.312Z,55.27
2018-12-15T22:48:36.075Z,60.70
2018-12-15T22:51:40.949Z,65.67
2018-12-15T22:54:45.701Z,55.47
2018-12-15T22:57:50.478Z,53.63
2018-12-15T23:01:01.376Z,68.53
2018-12-15T23:04:08.159Z,73.87
2018-12-15T23:07:12.914Z,62.67
2018-12-15T23:10:17.653Z,65.33
2018-12-15T23:13:22.394Z,68.67
2018-12-15T23:16:27.317Z,61.90
2018-12-15T23:19:32.043Z,75.93
2018-12-15T23:22:36.794Z,57.90
2018-12-15T23:25:41.534Z,58.07
2018-12-15T23:28:48.196Z,64.40
2018-12-15T23:31:52.927Z,61.77
2018-12-15T23:34:57.688Z,98.30
2018-12-15T23:38:02.455Z,55.43
2018-12-15T23:41:07.225Z,58.00
2018-12-15T23:44:11.960Z,62.27
2018-12-15T23:47:16.722Z,77.87
2018-12-15T23:50:21.782Z,69.30
2018-12-15T23:53:26.543Z,63.63
2018-12-15T23:56:31.280Z,76.90
2018-12-15T23:59:36.042Z,81.23
